Terminal Aerodrome Forecast
Issued by NWS

Home | Current Version | Previous Version | Text Only | Print | Product List | Glossary On
Versions: 1 2 3 4 5 6 7 8 9 10 11 12 13 14
000
FTPA31 PHFO 300533
TAFHMK
TAF
PHMK 300533Z 3006/3106 05011G18KT P6SM SCT025 BKN045
     FM302000 04012G20KT P6SM FEW025 SCT045
     FM310500 05011G18KT P6SM SCT025 SCT045=

USA.gov is the U.S. government's official web portal to all federal, state and local government web resources and services.